createdAt,value
2023-05-21T00:00:23.049Z,15.10
2023-05-21T00:02:59.182Z,15.10
2023-05-21T00:05:32.591Z,15.10
2023-05-21T00:08:06.363Z,15.10
2023-05-21T00:10:39.413Z,15.00
2023-05-21T00:13:12.563Z,15.00
2023-05-21T00:15:45.604Z,15.00
2023-05-21T00:18:20.069Z,15.00
2023-05-21T00:20:53.391Z,15.00
2023-05-21T00:23:26.881Z,14.90
2023-05-21T00:26:00.042Z,14.90
2023-05-21T00:28:33.084Z,14.90
2023-05-21T00:31:06.210Z,14.90
2023-05-21T00:33:40.688Z,14.80
2023-05-21T00:36:40.438Z,14.80
2023-05-21T00:39:14.224Z,14.80
2023-05-21T00:41:48.613Z,14.70
2023-05-21T00:44:22.092Z,14.70
2023-05-21T00:46:55.288Z,14.60
2023-05-21T00:49:30.582Z,14.60
2023-05-21T00:52:03.666Z,14.60
2023-05-21T00:54:37.084Z,14.50
2023-05-21T00:57:10.698Z,14.50
2023-05-21T00:59:43.814Z,14.50
2023-05-21T01:02:18.225Z,14.50
2023-05-21T01:04:55.577Z,14.40
2023-05-21T01:07:28.621Z,14.40
2023-05-21T01:10:03.777Z,14.40
2023-05-21T01:12:39.447Z,14.40
2023-05-21T01:15:13.153Z,14.30
2023-05-21T01:17:46.806Z,14.30
2023-05-21T01:20:21.620Z,14.30
2023-05-21T01:22:57.599Z,14.30
2023-05-21T01:25:30.708Z,14.30
2023-05-21T01:28:04.010Z,14.20
2023-05-21T01:30:37.783Z,14.20
2023-05-21T01:33:20.275Z,14.20
2023-05-21T01:36:11.773Z,14.20
2023-05-21T01:38:56.181Z,14.20
2023-05-21T01:41:34.503Z,14.10
2023-05-21T01:44:09.750Z,14.10
2023-05-21T01:46:42.877Z,14.10
2023-05-21T01:49:17.545Z,14.00
2023-05-21T01:51:51.300Z,14.00
2023-05-21T01:54:25.712Z,14.00
2023-05-21T01:56:58.789Z,14.00
2023-05-21T01:59:31.984Z,14.00
2023-05-21T02:02:05.329Z,13.90
2023-05-21T02:04:41.284Z,13.90
2023-05-21T02:07:14.450Z,13.90
2023-05-21T02:09:48.862Z,13.90
2023-05-21T02:12:22.034Z,13.80
2023-05-21T02:14:56.308Z,13.80
2023-05-21T02:17:31.230Z,13.90
2023-05-21T02:20:11.456Z,13.80
2023-05-21T02:22:47.258Z,13.80
2023-05-21T02:25:21.821Z,13.80
2023-05-21T02:27:56.693Z,13.80
2023-05-21T02:30:30.136Z,13.70
2023-05-21T02:33:03.261Z,13.70
2023-05-21T02:35:36.717Z,13.70
2023-05-21T02:38:10.571Z,13.60
2023-05-21T02:40:44.985Z,13.60
2023-05-21T02:43:18.287Z,13.60
2023-05-21T02:45:52.392Z,13.60
2023-05-21T02:48:25.573Z,13.60
2023-05-21T02:50:59.821Z,13.50
2023-05-21T02:53:32.852Z,13.50
2023-05-21T02:56:07.808Z,13.50
2023-05-21T02:58:41.712Z,13.50
2023-05-21T03:01:14.797Z,13.40
2023-05-21T03:03:47.943Z,13.40
2023-05-21T03:06:21.079Z,13.40
2023-05-21T03:08:54.233Z,13.40
2023-05-21T03:11:28.692Z,13.30
2023-05-21T03:14:01.713Z,13.30
2023-05-21T03:16:34.889Z,13.30
2023-05-21T03:19:08.142Z,13.30
2023-05-21T03:21:41.792Z,13.20
2023-05-21T03:24:15.297Z,13.20
2023-05-21T03:26:50.349Z,13.20
2023-05-21T03:29:23.409Z,13.20
2023-05-21T03:31:56.719Z,13.10
2023-05-21T03:34:30.239Z,13.10
2023-05-21T03:37:03.371Z,13.10
2023-05-21T03:39:36.422Z,13.10
2023-05-21T03:42:10.813Z,13.10
2023-05-21T03:44:43.874Z,13.10
2023-05-21T03:47:17.471Z,13.10
2023-05-21T03:49:50.692Z,13.10
2023-05-21T03:52:23.775Z,13.00
2023-05-21T03:54:56.877Z,13.00
2023-05-21T03:57:31.294Z,13.00
2023-05-21T04:00:06.421Z,13.00
2023-05-21T04:02:39.515Z,13.00
2023-05-21T04:05:12.687Z,13.00
2023-05-21T04:07:46.336Z,13.00
2023-05-21T04:10:19.634Z,13.00
2023-05-21T04:12:54.173Z,13.10
2023-05-21T04:15:27.776Z,13.10
2023-05-21T04:18:01.017Z,13.00
2023-05-21T04:20:34.229Z,13.00
2023-05-21T04:23:07.412Z,13.00
2023-05-21T04:25:40.527Z,13.00
2023-05-21T04:28:20.448Z,12.90
2023-05-21T04:30:53.686Z,13.00
2023-05-21T04:33:27.036Z,13.00
2023-05-21T04:36:00.194Z,13.00
2023-05-21T04:38:33.309Z,13.10
2023-05-21T04:41:06.921Z,13.10
2023-05-21T04:43:43.992Z,13.10
2023-05-21T04:46:17.254Z,13.10
2023-05-21T04:48:52.344Z,13.10
2023-05-21T04:51:26.751Z,13.20
2023-05-21T04:53:59.883Z,13.20
2023-05-21T04:56:32.959Z,13.20
2023-05-21T04:59:07.615Z,13.20
2023-05-21T05:01:41.176Z,13.20
2023-05-21T05:04:14.460Z,13.20
2023-05-21T05:06:47.691Z,13.20
2023-05-21T05:09:24.078Z,13.20
2023-05-21T05:11:57.405Z,13.30
2023-05-21T05:14:31.962Z,13.30
2023-05-21T05:17:05.704Z,13.40
2023-05-21T05:19:38.954Z,13.30
2023-05-21T05:22:13.531Z,13.40
2023-05-21T05:24:46.832Z,13.40
2023-05-21T05:27:19.953Z,13.40
2023-05-21T05:29:54.374Z,13.50
2023-05-21T05:32:27.450Z,13.60
2023-05-21T05:35:02.423Z,13.70
2023-05-21T05:37:35.914Z,13.80
2023-05-21T05:40:10.047Z,13.80
2023-05-21T05:42:43.211Z,13.90
2023-05-21T05:45:17.661Z,14.10
2023-05-21T05:47:50.906Z,14.20
2023-05-21T05:50:24.070Z,14.30
2023-05-21T05:52:57.324Z,14.50
2023-05-21T05:55:30.652Z,14.50
2023-05-21T05:58:03.801Z,14.60
2023-05-21T06:00:38.285Z,14.70
2023-05-21T06:03:12.163Z,14.80
2023-05-21T06:05:45.751Z,14.90
2023-05-21T06:08:18.974Z,15.00
2023-05-21T06:10:52.551Z,15.30
2023-05-21T06:13:25.646Z,15.50
2023-05-21T06:16:00.623Z,15.80
2023-05-21T06:18:33.843Z,15.90
2023-05-21T06:21:07.165Z,16.10
2023-05-21T06:23:40.302Z,16.30
2023-05-21T06:26:13.452Z,16.50
2023-05-21T06:28:46.692Z,16.60
2023-05-21T06:31:23.523Z,16.80
2023-05-21T06:33:56.928Z,17.00
2023-05-21T06:36:32.374Z,17.20
2023-05-21T06:39:05.706Z,17.30
2023-05-21T06:41:38.901Z,17.50
2023-05-21T06:44:12.173Z,17.90
2023-05-21T06:46:46.606Z,18.60
2023-05-21T06:49:19.809Z,18.80
2023-05-21T06:51:52.938Z,19.10
2023-05-21T06:54:27.072Z,19.30
2023-05-21T06:57:00.354Z,19.50
2023-05-21T06:59:34.649Z,19.50
2023-05-21T07:02:09.475Z,19.60
2023-05-21T07:04:42.632Z,19.60
2023-05-21T07:07:15.807Z,19.60
2023-05-21T07:09:49.290Z,19.80
2023-05-21T07:12:22.553Z,19.90
2023-05-21T07:14:57.546Z,19.90
2023-05-21T07:17:33.442Z,19.90
2023-05-21T07:20:08.952Z,20.30
2023-05-21T07:22:44.942Z,20.40
2023-05-21T07:25:18.230Z,20.50
2023-05-21T07:27:51.333Z,20.70
2023-05-21T07:30:24.594Z,21.10
2023-05-21T07:32:59.131Z,21.50
2023-05-21T07:35:32.325Z,21.70
2023-05-21T07:38:06.235Z,21.70
2023-05-21T07:40:39.410Z,21.60
2023-05-21T07:43:13.242Z,22.00
2023-05-21T07:45:46.416Z,22.00
2023-05-21T07:48:21.068Z,22.20
2023-05-21T07:50:54.690Z,22.40
2023-05-21T07:53:28.861Z,23.10
2023-05-21T07:56:02.441Z,23.00
2023-05-21T07:58:36.168Z,23.20
2023-05-21T08:01:09.350Z,23.50
2023-05-21T08:03:44.032Z,23.40
2023-05-21T08:06:17.455Z,23.70
2023-05-21T08:08:50.840Z,23.60
2023-05-21T08:11:23.989Z,23.70
2023-05-21T08:13:57.237Z,23.50
2023-05-21T08:16:30.490Z,23.50
2023-05-21T08:19:05.145Z,23.50
2023-05-21T08:21:38.415Z,23.80
2023-05-21T08:24:11.673Z,23.50
2023-05-21T08:26:45.213Z,23.60
2023-05-21T08:29:18.394Z,23.50
2023-05-21T08:31:51.593Z,22.90
2023-05-21T08:34:26.749Z,22.50
2023-05-21T08:36:59.879Z,22.40
2023-05-21T08:39:33.103Z,22.40
2023-05-21T08:42:17.685Z,22.30
2023-05-21T08:45:00.479Z,22.40
2023-05-21T08:47:36.880Z,22.20
2023-05-21T08:50:15.044Z,22.50
2023-05-21T08:52:48.564Z,22.50
2023-05-21T08:55:22.507Z,22.40
2023-05-21T08:57:56.657Z,22.70
2023-05-21T09:00:29.884Z,22.40
2023-05-21T09:03:07.732Z,22.50
2023-05-21T09:05:43.544Z,22.00
2023-05-21T09:08:21.137Z,22.20
2023-05-21T09:10:54.618Z,22.30
2023-05-21T09:13:28.884Z,22.40
2023-05-21T09:16:02.253Z,22.60
2023-05-21T09:18:35.510Z,22.40
2023-05-21T09:21:29.272Z,22.20
2023-05-21T09:24:02.713Z,22.30
2023-05-21T09:26:35.828Z,22.00
2023-05-21T09:29:09.248Z,22.00
2023-05-21T09:31:45.419Z,22.20
2023-05-21T09:34:18.907Z,22.40
2023-05-21T09:36:53.655Z,22.60
2023-05-21T09:39:30.599Z,22.80
2023-05-21T09:42:03.742Z,23.30
2023-05-21T09:44:36.998Z,23.20
2023-05-21T09:47:10.549Z,23.30
2023-05-21T09:49:45.657Z,23.50
2023-05-21T09:52:27.580Z,23.60
2023-05-21T09:55:01.487Z,23.30
2023-05-21T09:57:41.566Z,23.50
2023-05-21T10:00:21.317Z,23.50
2023-05-21T10:02:57.214Z,23.60
2023-05-21T10:05:32.068Z,23.70
2023-05-21T10:08:10.642Z,24.10
2023-05-21T10:10:45.400Z,23.90
2023-05-21T10:13:23.070Z,23.80
2023-05-21T10:16:03.323Z,23.80
2023-05-21T10:18:39.053Z,23.80
2023-05-21T10:21:12.321Z,23.80
2023-05-21T10:23:47.644Z,23.90
2023-05-21T10:26:23.370Z,24.10
2023-05-21T10:29:00.315Z,24.30
2023-05-21T10:31:35.027Z,24.00
2023-05-21T10:34:08.879Z,24.00
2023-05-21T10:36:42.980Z,23.80
2023-05-21T10:39:20.774Z,24.10
2023-05-21T10:42:04.768Z,24.30
2023-05-21T10:44:55.527Z,24.00
2023-05-21T10:47:59.605Z,24.10
2023-05-21T10:51:11.858Z,24.40
2023-05-21T10:54:05.555Z,24.40
2023-05-21T10:56:43.981Z,24.20
2023-05-21T10:59:31.660Z,23.60
2023-05-21T11:02:07.088Z,23.70
2023-05-21T11:04:43.374Z,23.70
2023-05-21T11:07:24.172Z,24.00
2023-05-21T11:10:33.006Z,24.00
2023-05-21T11:13:14.224Z,24.00
2023-05-21T11:16:08.072Z,24.40
2023-05-21T11:19:02.483Z,24.70
2023-05-21T11:21:36.245Z,24.60
2023-05-21T11:24:11.272Z,24.40
2023-05-21T11:27:04.972Z,24.40
2023-05-21T11:29:45.413Z,24.30
2023-05-21T11:32:20.756Z,24.20
2023-05-21T11:34:54.043Z,24.30
2023-05-21T11:37:34.526Z,24.50
2023-05-21T11:40:26.086Z,24.60
2023-05-21T11:42:59.457Z,24.60
2023-05-21T11:45:34.671Z,24.50
2023-05-21T11:48:08.446Z,24.20
2023-05-21T11:50:42.496Z,24.30
2023-05-21T11:53:16.309Z,24.50
2023-05-21T11:55:57.221Z,24.50
2023-05-21T11:58:32.675Z,24.60
2023-05-21T12:01:07.325Z,24.70
2023-05-21T12:03:40.739Z,24.70
2023-05-21T12:06:14.153Z,24.70
2023-05-21T12:08:58.104Z,24.80
2023-05-21T12:11:31.574Z,24.50
2023-05-21T12:14:04.904Z,24.20
2023-05-21T12:16:41.297Z,24.20
2023-05-21T12:19:18.682Z,24.10
2023-05-21T12:21:52.177Z,24.10
2023-05-21T12:24:25.490Z,24.70
2023-05-21T12:27:01.390Z,24.70
2023-05-21T12:29:35.618Z,24.40
2023-05-21T12:32:12.800Z,24.30
2023-05-21T12:34:48.678Z,24.40
2023-05-21T12:37:23.945Z,24.60
2023-05-21T12:40:00.848Z,24.80
2023-05-21T12:42:35.466Z,24.60
2023-05-21T12:45:10.472Z,24.70
2023-05-21T12:47:55.923Z,24.70
2023-05-21T12:50:29.617Z,24.90
2023-05-21T12:53:02.771Z,24.50
2023-05-21T12:55:37.341Z,24.40
2023-05-21T12:58:14.862Z,24.30
2023-05-21T13:00:48.651Z,24.30
2023-05-21T13:03:25.134Z,24.20
2023-05-21T13:06:01.234Z,24.40
2023-05-21T13:08:34.780Z,24.50
2023-05-21T13:11:08.031Z,24.50
2023-05-21T13:13:41.220Z,24.50
2023-05-21T13:16:14.463Z,24.40
2023-05-21T13:18:48.944Z,24.40
2023-05-21T13:21:22.142Z,24.40
2023-05-21T13:23:55.467Z,24.50
2023-05-21T13:26:28.802Z,24.50
2023-05-21T13:29:02.002Z,24.60
2023-05-21T13:31:35.111Z,24.70
2023-05-21T13:34:09.508Z,24.70
2023-05-21T13:36:43.086Z,24.70
2023-05-21T13:39:16.411Z,24.90
2023-05-21T13:41:49.641Z,25.00
2023-05-21T13:44:22.724Z,25.10
2023-05-21T13:46:55.843Z,25.20
2023-05-21T13:49:30.597Z,25.20
2023-05-21T13:52:04.682Z,25.20
2023-05-21T13:54:37.839Z,25.20
2023-05-21T13:57:11.086Z,25.20
2023-05-21T13:59:44.174Z,25.40
2023-05-21T14:02:17.391Z,25.40
2023-05-21T14:04:51.795Z,25.40
2023-05-21T14:07:24.944Z,25.40
2023-05-21T14:09:59.068Z,25.60
2023-05-21T14:12:33.337Z,25.60
2023-05-21T14:15:08.023Z,25.60
2023-05-21T14:17:42.428Z,25.60
2023-05-21T14:20:17.042Z,25.90
2023-05-21T14:22:50.329Z,26.00
2023-05-21T14:25:23.377Z,25.90
2023-05-21T14:27:56.477Z,25.60
2023-05-21T14:30:29.513Z,25.50
2023-05-21T14:33:02.616Z,25.60
2023-05-21T14:35:37.253Z,25.60
2023-05-21T14:38:10.609Z,25.70
2023-05-21T14:40:43.704Z,25.70
2023-05-21T14:43:16.894Z,25.60
2023-05-21T14:45:50.274Z,25.60
2023-05-21T14:48:24.007Z,26.00
2023-05-21T14:50:58.454Z,26.00
2023-05-21T14:53:32.281Z,25.90
2023-05-21T14:56:06.125Z,25.90
2023-05-21T14:58:39.232Z,25.80
2023-05-21T15:01:12.503Z,25.70
2023-05-21T15:03:45.665Z,25.70
2023-05-21T15:06:20.161Z,25.70
2023-05-21T15:08:53.208Z,25.70
2023-05-21T15:11:26.247Z,25.60
2023-05-21T15:13:59.282Z,25.60
2023-05-21T15:16:32.513Z,25.60
2023-05-21T15:19:05.953Z,25.60
2023-05-21T15:21:40.450Z,25.50
2023-05-21T15:24:13.505Z,25.50
2023-05-21T15:26:46.992Z,25.40
2023-05-21T15:29:20.036Z,25.30
2023-05-21T15:31:53.128Z,25.40
2023-05-21T15:34:26.562Z,25.40
2023-05-21T15:37:01.138Z,25.40
2023-05-21T15:39:34.233Z,25.40
2023-05-21T15:42:07.268Z,25.40
2023-05-21T15:44:41.174Z,25.40
2023-05-21T15:47:14.239Z,25.40
2023-05-21T15:49:47.357Z,25.40
2023-05-21T15:52:21.791Z,25.40
2023-05-21T15:54:54.868Z,25.40
2023-05-21T15:57:27.931Z,25.50
2023-05-21T16:00:01.143Z,25.60
2023-05-21T16:02:34.356Z,25.70
2023-05-21T16:05:07.882Z,25.60
2023-05-21T16:07:42.544Z,25.60
2023-05-21T16:10:15.678Z,25.70
2023-05-21T16:12:48.857Z,25.70
2023-05-21T16:15:22.288Z,25.70
2023-05-21T16:17:55.502Z,25.70
2023-05-21T16:20:30.654Z,25.70
2023-05-21T16:23:06.418Z,25.70
2023-05-21T16:25:39.650Z,25.70
2023-05-21T16:28:13.170Z,25.60
2023-05-21T16:30:46.270Z,25.60
2023-05-21T16:33:20.385Z,25.60
2023-05-21T16:35:54.377Z,25.40
2023-05-21T16:38:28.894Z,25.30
2023-05-21T16:41:01.975Z,25.30
2023-05-21T16:43:35.196Z,25.20
2023-05-21T16:46:08.333Z,25.10
2023-05-21T16:48:42.700Z,25.00
2023-05-21T16:51:15.815Z,24.90
2023-05-21T16:53:50.351Z,24.80
2023-05-21T16:56:23.550Z,24.70
2023-05-21T16:58:56.659Z,24.70
2023-05-21T17:01:29.849Z,24.60
2023-05-21T17:04:03.178Z,24.60
2023-05-21T17:06:36.373Z,24.60
2023-05-21T17:09:10.799Z,24.50
2023-05-21T17:11:44.072Z,24.40
2023-05-21T17:14:27.005Z,24.30
2023-05-21T17:17:07.699Z,24.20
2023-05-21T17:19:41.721Z,24.10
2023-05-21T17:22:15.932Z,24.10
2023-05-21T17:24:50.532Z,23.90
2023-05-21T17:27:23.602Z,23.80
2023-05-21T17:29:57.247Z,23.80
2023-05-21T17:32:30.373Z,23.70
2023-05-21T17:35:03.716Z,23.50
2023-05-21T17:37:36.813Z,23.50
2023-05-21T17:40:12.906Z,23.30
2023-05-21T17:42:46.011Z,23.30
2023-05-21T17:45:19.266Z,23.20
2023-05-21T17:47:52.967Z,23.10
2023-05-21T17:50:26.112Z,23.00
2023-05-21T17:52:59.294Z,22.90
2023-05-21T17:55:33.756Z,22.70
2023-05-21T17:58:06.811Z,22.70
2023-05-21T18:00:39.931Z,22.50
2023-05-21T18:03:13.050Z,22.40
2023-05-21T18:05:46.109Z,22.30
2023-05-21T18:08:19.176Z,22.20
2023-05-21T18:10:53.644Z,22.10
2023-05-21T18:13:26.749Z,22.00
2023-05-21T18:16:00.120Z,21.90
2023-05-21T18:18:33.289Z,21.70
2023-05-21T18:21:06.372Z,21.70
2023-05-21T18:23:39.997Z,21.50
2023-05-21T18:26:14.433Z,21.40
2023-05-21T18:28:47.598Z,21.30
2023-05-21T18:31:20.915Z,21.20
2023-05-21T18:33:54.121Z,21.10
2023-05-21T18:36:27.540Z,21.00
2023-05-21T18:39:00.566Z,20.90
2023-05-21T18:41:35.344Z,20.80
2023-05-21T18:44:08.384Z,20.70
2023-05-21T18:46:42.291Z,20.60
2023-05-21T18:49:15.434Z,20.60
2023-05-21T18:51:48.705Z,20.50
2023-05-21T18:54:21.789Z,20.30
2023-05-21T18:56:59.575Z,20.20
2023-05-21T18:59:32.712Z,20.10
2023-05-21T19:02:06.499Z,19.90
2023-05-21T19:04:39.629Z,19.90
2023-05-21T19:07:13.003Z,19.80
2023-05-21T19:09:46.125Z,19.70
2023-05-21T19:12:20.615Z,19.50
2023-05-21T19:14:53.874Z,19.40
2023-05-21T19:17:27.085Z,19.30
2023-05-21T19:20:00.874Z,19.20
2023-05-21T19:22:34.146Z,19.20
2023-05-21T19:25:08.290Z,19.10
2023-05-21T19:27:43.040Z,19.00
2023-05-21T19:30:16.521Z,19.00
2023-05-21T19:32:49.665Z,18.90
2023-05-21T19:35:23.480Z,18.80
2023-05-21T19:38:00.632Z,18.70
2023-05-21T19:40:35.450Z,18.60
2023-05-21T19:43:10.055Z,18.60
2023-05-21T19:45:43.168Z,18.50
2023-05-21T19:48:17.030Z,18.40
2023-05-21T19:50:50.119Z,18.30
2023-05-21T19:53:24.246Z,18.20
2023-05-21T19:55:57.328Z,18.20
2023-05-21T19:58:33.091Z,18.00
2023-05-21T20:01:06.427Z,17.90
2023-05-21T20:03:42.613Z,17.90
2023-05-21T20:06:18.744Z,17.90
2023-05-21T20:08:52.043Z,17.80
2023-05-21T20:11:25.984Z,17.70
2023-05-21T20:14:02.124Z,17.60
2023-05-21T20:16:35.312Z,17.60
2023-05-21T20:19:10.826Z,17.60
2023-05-21T20:21:44.088Z,17.50
2023-05-21T20:24:17.285Z,17.40
2023-05-21T20:26:50.359Z,17.40
2023-05-21T20:29:24.945Z,17.40
2023-05-21T20:31:58.057Z,17.30
2023-05-21T20:34:31.904Z,17.30
2023-05-21T20:37:05.244Z,17.30
2023-05-21T20:39:39.424Z,17.30
2023-05-21T20:42:15.006Z,17.20
2023-05-21T20:44:49.667Z,17.10
2023-05-21T20:47:23.375Z,17.00
2023-05-21T20:49:57.700Z,17.00
2023-05-21T20:52:30.783Z,16.90
2023-05-21T20:55:04.520Z,16.80
2023-05-21T20:57:37.675Z,16.80
2023-05-21T21:00:15.847Z,16.70
2023-05-21T21:02:49.587Z,16.70
2023-05-21T21:05:24.310Z,16.60
2023-05-21T21:08:02.377Z,16.60
2023-05-21T21:10:35.917Z,16.50
2023-05-21T21:13:09.451Z,16.50
2023-05-21T21:15:44.149Z,16.60
2023-05-21T21:18:17.608Z,16.60
2023-05-21T21:20:50.731Z,16.40
2023-05-21T21:23:25.468Z,16.40
2023-05-21T21:25:58.647Z,16.40
2023-05-21T21:28:31.776Z,16.40
2023-05-21T21:31:06.316Z,16.30
2023-05-21T21:33:39.418Z,16.30
2023-05-21T21:36:13.103Z,16.20
2023-05-21T21:38:46.221Z,16.10
2023-05-21T21:41:20.374Z,16.10
2023-05-21T21:43:53.455Z,16.00
2023-05-21T21:46:27.943Z,16.00
2023-05-21T21:49:01.082Z,15.90
2023-05-21T21:51:35.392Z,15.90
2023-05-21T21:54:08.484Z,15.80
2023-05-21T21:56:41.542Z,15.80
2023-05-21T21:59:15.064Z,15.70
2023-05-21T22:01:49.686Z,15.70
2023-05-21T22:04:22.790Z,15.60
2023-05-21T22:06:56.006Z,15.60
2023-05-21T22:09:29.157Z,15.50
2023-05-21T22:12:07.586Z,15.40
2023-05-21T22:14:43.646Z,15.50
2023-05-21T22:17:18.101Z,15.40
2023-05-21T22:19:51.315Z,15.40
2023-05-21T22:22:25.907Z,15.40
2023-05-21T22:24:58.972Z,15.40
2023-05-21T22:27:32.202Z,15.30
2023-05-21T22:30:06.881Z,15.30
2023-05-21T22:32:41.507Z,15.20
2023-05-21T22:35:14.855Z,15.20
2023-05-21T22:37:47.947Z,15.20
2023-05-21T22:40:21.155Z,15.20
2023-05-21T22:42:54.252Z,15.20
2023-05-21T22:45:28.508Z,15.00
2023-05-21T22:48:07.393Z,15.00
2023-05-21T22:50:40.905Z,15.00
2023-05-21T22:53:14.345Z,15.00
2023-05-21T22:55:47.463Z,14.90
2023-05-21T22:58:20.756Z,14.90
2023-05-21T23:00:53.834Z,14.90
2023-05-21T23:03:28.265Z,14.90
2023-05-21T23:06:01.536Z,14.90
2023-05-21T23:08:34.617Z,14.80
2023-05-21T23:11:07.726Z,14.80
2023-05-21T23:13:40.793Z,14.70
2023-05-21T23:16:14.585Z,14.70
2023-05-21T23:18:49.913Z,14.70
2023-05-21T23:21:23.328Z,14.60
2023-05-21T23:23:56.566Z,14.60
2023-05-21T23:26:29.685Z,14.60
2023-05-21T23:29:03.332Z,14.60
2023-05-21T23:31:37.065Z,14.50
2023-05-21T23:34:12.234Z,14.50
2023-05-21T23:36:45.360Z,14.50
2023-05-21T23:39:18.385Z,14.40
2023-05-21T23:41:51.756Z,14.40
2023-05-21T23:44:24.817Z,14.40
2023-05-21T23:46:57.863Z,14.40
2023-05-21T23:49:32.260Z,14.30
2023-05-21T23:52:07.305Z,14.30
2023-05-21T23:54:41.505Z,14.30
2023-05-21T23:57:14.580Z,14.30
2023-05-21T23:59:47.659Z,14.20
